EFKK/KOK METAR and TAF weather

Enter ICAO airport designator
Station Type Date Time Source
EFKK METAR 2020/01/20 12:50 UTC NOAA

EFKK 201250Z AUTO 23013G25KT 200V260 CAVOK 04/01 Q1010


Station Type Date Time Source
EFKK Decoded METAR 2020/01/20 12:50 UTC NOAA

Kruunupyy, Finland (EFKK) 63-43N 023-09E
Jan 20, 2020 - 07:50 AM EST / 2020.01.20 1250 UTC
Wind: from the SW (230 degrees) at 15 MPH (13 KT) gusting to 29 MPH (25 KT) (direction variable):0
Visibility: greater than 7 mile(s):0
Temperature: 39 F (4 C)
Dew Point: 33 F (1 C)
Relative Humidity: 80%
Pressure (altimeter): 29.83 in. Hg (1010 hPa)
ob: EFKK 201250Z AUTO 23013G25KT 200V260 CAVOK 04/01 Q1010
cycle: 13

Station Type Date Time Source
EFKK TAF 2019/04/22 21:42 UTC NOAA

TAF EFKK 222023Z 2221/2321 18006KT CAVOK

Example: see airport list